Time;durP1;ratioP1;P1;durP2;ratioP2;P2;SDS_P1;SDS_P2;PMS_P1;PMS_P2;Temp;Humidity;BMP_temperature;BMP_pressure;BME280_temperature;BME280_humidity;BME280_pressure;Samples;Min_cycle;Max_cycle;Signal;HPM_P1;HPM_P2
2021/07/09 00:01:03;;;;;;;;;;;20.50;65.00;;;;;;493108;242;2139;-43
2021/07/09 00:03:05;;;;;;;;;;;20.50;64.90;;;;;;493186;242;1190;-44
2021/07/09 00:05:06;;;;;;;;;;;20.50;64.90;;;;;;493378;242;1107;-44
2021/07/09 00:07:07;;;;;;;;;;;20.50;65.00;;;;;;493125;242;1208;-44
2021/07/09 00:09:09;;;;;;;;;;;20.50;65.00;;;;;;493609;242;1163;-44
2021/07/09 00:11:10;;;;;;;;;;;20.50;64.90;;;;;;493572;242;1076;-44
2021/07/09 00:13:11;;;;;;;;;;;20.50;65.00;;;;;;493602;242;1238;-44
2021/07/09 00:15:13;;;;;;;;;;;20.50;65.00;;;;;;493287;242;1192;-44
2021/07/09 00:17:14;;;;;;;;;;;20.50;64.90;;;;;;493579;242;1275;-44
2021/07/09 00:19:15;;;;;;;;;;;20.50;64.90;;;;;;493203;242;1065;-44
2021/07/09 00:21:17;;;;;;;;;;;20.50;64.90;;;;;;493149;242;2214;-44
2021/07/09 00:23:18;;;;;;;;;;;20.50;65.00;;;;;;493629;242;1221;-44
2021/07/09 00:25:21;;;;;;;;;;;20.50;65.00;;;;;;493213;242;1331;-44
2021/07/09 00:27:21;;;;;;;;;;;20.50;64.90;;;;;;493061;242;2576;-44
2021/07/09 00:29:22;;;;;;;;;;;20.50;64.90;;;;;;493226;242;1119;-43
2021/07/09 00:31:24;;;;;;;;;;;20.50;64.90;;;;;;493181;242;1281;-44
2021/07/09 00:33:25;;;;;;;;;;;20.50;65.00;;;;;;493211;242;1182;-44
2021/07/09 00:35:26;;;;;;;;;;;20.50;64.90;;;;;;493162;242;1207;-44
2021/07/09 00:37:28;;;;;;;;;;;20.50;64.80;;;;;;493587;242;1138;-44
2021/07/09 00:39:29;;;;;;;;;;;20.50;64.90;;;;;;493420;242;1051;-44
2021/07/09 00:41:30;;;;;;;;;;;20.50;64.90;;;;;;493328;242;2183;-44
2021/07/09 00:43:32;;;;;;;;;;;20.60;64.90;;;;;;493157;242;1054;-44
2021/07/09 00:45:33;;;;;;;;;;;20.50;64.80;;;;;;493260;242;1131;-44
2021/07/09 00:47:34;;;;;;;;;;;20.60;64.80;;;;;;493200;242;1239;-44
2021/07/09 00:49:36;;;;;;;;;;;20.50;64.80;;;;;;493187;242;1258;-44
2021/07/09 00:51:37;;;;;;;;;;;20.50;64.80;;;;;;493103;242;1032;-44
2021/07/09 00:53:38;;;;;;;;;;;20.50;64.80;;;;;;493601;242;1058;-44
2021/07/09 00:55:40;;;;;;;;;;;20.50;64.90;;;;;;493543;242;1065;-44
2021/07/09 00:57:41;;;;;;;;;;;20.50;64.90;;;;;;493161;242;1181;-44
2021/07/09 00:59:42;;;;;;;;;;;20.50;64.80;;;;;;493174;237;1379;-44
2021/07/09 01:01:44;;;;;;;;;;;20.50;64.80;;;;;;493205;242;2136;-44
2021/07/09 01:03:45;;;;;;;;;;;20.50;64.90;;;;;;493173;242;1062;-43
2021/07/09 01:05:46;;;;;;;;;;;20.50;64.90;;;;;;493149;242;1091;-44
2021/07/09 01:07:47;;;;;;;;;;;20.50;65.00;;;;;;493460;242;1054;-44
2021/07/09 01:09:49;;;;;;;;;;;20.50;64.90;;;;;;493199;242;1045;-44
2021/07/09 01:11:51;;;;;;;;;;;20.50;64.80;;;;;;493155;242;1191;-44
2021/07/09 01:13:52;;;;;;;;;;;20.50;64.90;;;;;;493656;242;1054;-44
2021/07/09 01:15:53;;;;;;;;;;;20.50;64.90;;;;;;493226;242;1148;-44
2021/07/09 01:17:55;;;;;;;;;;;20.50;64.90;;;;;;493202;242;1089;-44
2021/07/09 01:19:56;;;;;;;;;;;20.50;65.00;;;;;;493213;242;1082;-44
2021/07/09 01:21:57;;;;;;;;;;;20.50;65.00;;;;;;493253;242;2124;-44
2021/07/09 01:23:59;;;;;;;;;;;20.50;65.10;;;;;;493660;242;1003;-44
2021/07/09 01:26:00;;;;;;;;;;;20.50;65.00;;;;;;493145;242;1079;-44
2021/07/09 01:28:01;;;;;;;;;;;20.50;65.00;;;;;;493173;242;1113;-44
2021/07/09 01:30:03;;;;;;;;;;;20.50;65.00;;;;;;493381;242;1187;-44
2021/07/09 01:32:04;;;;;;;;;;;20.50;65.00;;;;;;493232;242;1157;-44
2021/07/09 01:34:05;;;;;;;;;;;20.50;65.00;;;;;;493167;242;1065;-44
2021/07/09 01:36:07;;;;;;;;;;;20.50;65.00;;;;;;493406;242;1180;-44
2021/07/09 01:38:08;;;;;;;;;;;20.50;64.90;;;;;;493661;242;1072;-44
2021/07/09 01:40:09;;;;;;;;;;;20.50;64.90;;;;;;493382;242;1081;-44
2021/07/09 01:42:11;;;;;;;;;;;20.50;65.00;;;;;;493029;242;2144;-44
2021/07/09 01:44:12;;;;;;;;;;;20.50;64.90;;;;;;493354;242;1080;-44
2021/07/09 01:46:13;;;;;;;;;;;20.50;64.90;;;;;;493228;242;1188;-44
2021/07/09 01:48:15;;;;;;;;;;;20.50;64.90;;;;;;493184;242;1088;-44
2021/07/09 01:50:16;;;;;;;;;;;20.50;65.00;;;;;;493686;242;1029;-44
2021/07/09 01:52:17;;;;;;;;;;;20.50;65.00;;;;;;493431;242;1029;-44
2021/07/09 01:54:19;;;;;;;;;;;20.50;64.90;;;;;;493519;242;974;-44
2021/07/09 01:56:20;;;;;;;;;;;20.50;64.90;;;;;;493513;242;1364;-44
2021/07/09 01:58:21;;;;;;;;;;;20.50;64.90;;;;;;493687;242;1090;-44
2021/07/09 02:00:22;;;;;;;;;;;20.50;64.90;;;;;;493472;242;1229;-44
2021/07/09 02:02:24;;;;;;;;;;;20.50;65.00;;;;;;493577;242;2144;-44
2021/07/09 02:04:25;;;;;;;;;;;20.50;65.00;;;;;;493654;242;1125;-44
2021/07/09 02:06:27;;;;;;;;;;;20.50;65.00;;;;;;493435;242;1100;-44
2021/07/09 02:08:28;;;;;;;;;;;20.50;64.90;;;;;;493624;242;1089;-44
2021/07/09 02:10:29;;;;;;;;;;;20.50;64.90;;;;;;493664;242;1030;-44
2021/07/09 02:12:31;;;;;;;;;;;20.50;64.80;;;;;;493636;242;1121;-44
2021/07/09 02:14:32;;;;;;;;;;;20.50;64.90;;;;;;493175;242;1072;-44
2021/07/09 02:16:33;;;;;;;;;;;20.50;64.90;;;;;;493141;242;1181;-44
2021/07/09 02:18:35;;;;;;;;;;;20.50;64.90;;;;;;493609;242;1031;-44
2021/07/09 02:20:36;;;;;;;;;;;20.50;64.90;;;;;;493672;242;1073;-44
2021/07/09 02:22:37;;;;;;;;;;;20.50;64.90;;;;;;493151;242;2191;-44
2021/07/09 02:24:39;;;;;;;;;;;20.50;64.90;;;;;;493707;242;1108;-44
2021/07/09 02:26:40;;;;;;;;;;;20.50;64.90;;;;;;493400;242;1593;-44
2021/07/09 02:28:41;;;;;;;;;;;20.50;65.00;;;;;;493154;242;1219;-44
2021/07/09 02:30:43;;;;;;;;;;;20.50;65.00;;;;;;493469;238;1293;-44
2021/07/09 02:32:44;;;;;;;;;;;20.50;65.00;;;;;;493210;242;1206;-44
2021/07/09 02:34:45;;;;;;;;;;;20.50;65.00;;;;;;493161;242;1186;-44
2021/07/09 02:36:47;;;;;;;;;;;20.50;65.00;;;;;;493374;242;1574;-44
2021/07/09 02:38:48;;;;;;;;;;;20.50;65.00;;;;;;493604;242;1053;-44
2021/07/09 02:40:50;;;;;;;;;;;20.50;65.10;;;;;;493457;242;1154;-44
2021/07/09 02:42:51;;;;;;;;;;;20.50;65.00;;;;;;493235;242;2179;-44
2021/07/09 02:44:52;;;;;;;;;;;20.50;65.00;;;;;;493237;242;1041;-44
2021/07/09 02:46:53;;;;;;;;;;;20.50;64.90;;;;;;493212;242;1423;-44
2021/07/09 02:48:55;;;;;;;;;;;20.50;65.00;;;;;;493200;242;1095;-44
2021/07/09 02:50:56;;;;;;;;;;;20.50;65.00;;;;;;493555;242;1414;-44
2021/07/09 02:52:57;;;;;;;;;;;20.50;65.00;;;;;;493321;242;1053;-44
2021/07/09 02:54:59;;;;;;;;;;;20.50;65.10;;;;;;493176;242;1050;-44
2021/07/09 02:57:00;;;;;;;;;;;20.50;65.00;;;;;;493140;242;1213;-44
2021/07/09 02:59:01;;;;;;;;;;;20.50;65.00;;;;;;493651;242;1093;-44
2021/07/09 03:01:03;;;;;;;;;;;20.50;65.00;;;;;;493398;238;1277;-44
2021/07/09 03:03:04;;;;;;;;;;;20.50;65.00;;;;;;493150;242;2195;-44
2021/07/09 03:05:05;;;;;;;;;;;20.50;65.00;;;;;;493667;242;1079;-44
2021/07/09 03:07:07;;;;;;;;;;;20.50;65.00;;;;;;493343;242;1191;-44
2021/07/09 03:09:08;;;;;;;;;;;20.50;65.00;;;;;;493146;242;1132;-44
2021/07/09 03:11:09;;;;;;;;;;;20.50;65.00;;;;;;493525;242;1476;-44
2021/07/09 03:13:11;;;;;;;;;;;20.50;65.00;;;;;;493320;242;1030;-44
2021/07/09 03:15:12;;;;;;;;;;;20.50;64.90;;;;;;493194;242;1043;-44
2021/07/09 03:17:13;;;;;;;;;;;20.50;65.00;;;;;;493102;242;1198;-44
2021/07/09 03:19:15;;;;;;;;;;;20.50;65.00;;;;;;493589;242;1148;-44
2021/07/09 03:21:16;;;;;;;;;;;20.50;65.00;;;;;;493495;242;1139;-44
2021/07/09 03:23:17;;;;;;;;;;;20.50;65.00;;;;;;493165;242;2144;-44
2021/07/09 03:25:19;;;;;;;;;;;20.50;65.00;;;;;;493655;242;1031;-44
2021/07/09 03:27:20;;;;;;;;;;;20.50;65.00;;;;;;493097;242;1136;-44
2021/07/09 03:29:21;;;;;;;;;;;20.50;65.00;;;;;;493172;242;1041;-44
2021/07/09 03:31:23;;;;;;;;;;;20.50;65.00;;;;;;493331;242;1314;-44
2021/07/09 03:33:24;;;;;;;;;;;20.50;65.00;;;;;;493309;242;1083;-44
2021/07/09 03:35:25;;;;;;;;;;;20.50;65.00;;;;;;493614;241;2412;-44
2021/07/09 03:37:26;;;;;;;;;;;20.50;65.00;;;;;;493165;242;1552;-44
2021/07/09 03:39:28;;;;;;;;;;;20.50;64.90;;;;;;493213;242;1175;-44
2021/07/09 03:41:29;;;;;;;;;;;20.50;65.00;;;;;;493113;240;1210;-44
2021/07/09 03:43:30;;;;;;;;;;;20.50;65.00;;;;;;493554;242;2187;-44
2021/07/09 03:45:32;;;;;;;;;;;20.50;65.00;;;;;;493198;242;1013;-44
2021/07/09 03:47:33;;;;;;;;;;;20.50;64.90;;;;;;493193;242;1138;-44
2021/07/09 03:49:34;;;;;;;;;;;20.50;64.90;;;;;;493617;242;1059;-44
2021/07/09 03:51:37;;;;;;;;;;;20.50;64.90;;;;;;493462;237;1213;-44
2021/07/09 03:53:37;;;;;;;;;;;20.50;64.90;;;;;;493082;242;2080;-44
2021/07/09 03:55:38;;;;;;;;;;;20.50;64.90;;;;;;493503;242;1063;-44
2021/07/09 03:57:40;;;;;;;;;;;20.50;64.90;;;;;;493255;242;1503;-44
2021/07/09 03:59:41;;;;;;;;;;;20.50;64.90;;;;;;493659;242;1045;-44
2021/07/09 04:01:42;;;;;;;;;;;20.50;64.90;;;;;;493379;242;1318;-44
2021/07/09 04:03:44;;;;;;;;;;;20.50;64.90;;;;;;493159;242;2183;-44
2021/07/09 04:05:45;;;;;;;;;;;20.50;64.90;;;;;;493502;242;1152;-44
2021/07/09 04:07:46;;;;;;;;;;;20.50;65.00;;;;;;493072;242;1228;-44
2021/07/09 04:09:47;;;;;;;;;;;20.50;65.00;;;;;;493612;242;1045;-44
2021/07/09 04:11:49;;;;;;;;;;;20.50;65.00;;;;;;493089;242;1374;-44
2021/07/09 04:13:50;;;;;;;;;;;20.50;64.90;;;;;;493506;242;1080;-44
2021/07/09 04:15:52;;;;;;;;;;;20.50;65.00;;;;;;493571;242;1106;-44
2021/07/09 04:17:53;;;;;;;;;;;20.50;64.90;;;;;;493109;242;1197;-44
2021/07/09 04:19:54;;;;;;;;;;;20.50;64.90;;;;;;493131;242;1124;-44
2021/07/09 04:21:55;;;;;;;;;;;20.50;64.90;;;;;;493075;242;1324;-44
2021/07/09 04:23:57;;;;;;;;;;;20.50;65.00;;;;;;493410;242;2187;-44
2021/07/09 04:25:58;;;;;;;;;;;20.50;65.00;;;;;;493232;242;1204;-44
2021/07/09 04:27:59;;;;;;;;;;;20.50;65.00;;;;;;493036;242;1166;-44
2021/07/09 04:30:01;;;;;;;;;;;20.50;65.00;;;;;;493549;242;1048;-44
2021/07/09 04:32:02;;;;;;;;;;;20.50;65.10;;;;;;492980;242;1229;-44
2021/07/09 04:34:03;;;;;;;;;;;20.50;65.00;;;;;;493115;242;1174;-44
2021/07/09 04:36:05;;;;;;;;;;;20.50;65.00;;;;;;493471;237;1094;-44
2021/07/09 04:38:06;;;;;;;;;;;20.50;65.00;;;;;;493465;242;1140;-44
2021/07/09 04:40:07;;;;;;;;;;;20.50;64.90;;;;;;493569;242;1083;-44
2021/07/09 04:42:09;;;;;;;;;;;20.40;64.90;;;;;;493071;242;2199;-44
2021/07/09 04:44:10;;;;;;;;;;;20.50;65.00;;;;;;493346;242;1026;-44
2021/07/09 04:46:11;;;;;;;;;;;20.50;65.00;;;;;;493498;242;1328;-44
2021/07/09 04:48:13;;;;;;;;;;;20.50;64.90;;;;;;493119;242;1170;-44
2021/07/09 04:50:14;;;;;;;;;;;20.50;64.90;;;;;;493460;242;1048;-44
2021/07/09 04:52:15;;;;;;;;;;;20.50;64.90;;;;;;493045;242;1262;-44
2021/07/09 04:54:17;;;;;;;;;;;20.50;65.00;;;;;;493113;242;1178;-44
2021/07/09 04:56:18;;;;;;;;;;;20.50;64.90;;;;;;493129;242;1349;-44
2021/07/09 04:58:20;;;;;;;;;;;20.50;65.00;;;;;;492981;242;1071;-44
2021/07/09 05:00:21;;;;;;;;;;;20.50;65.00;;;;;;493242;242;1051;-44
2021/07/09 05:02:22;;;;;;;;;;;20.50;65.00;;;;;;493095;242;2195;-44
2021/07/09 05:04:23;;;;;;;;;;;20.50;65.00;;;;;;493438;242;1077;-44
2021/07/09 05:06:25;;;;;;;;;;;20.50;64.90;;;;;;493010;242;1183;-44
2021/07/09 05:08:26;;;;;;;;;;;20.50;65.00;;;;;;492927;242;1064;-44
2021/07/09 05:10:27;;;;;;;;;;;20.50;65.00;;;;;;493208;242;1097;-44
2021/07/09 05:12:29;;;;;;;;;;;20.50;65.00;;;;;;492758;242;1155;-44
2021/07/09 05:14:30;;;;;;;;;;;20.50;65.00;;;;;;492983;242;1051;-44
2021/07/09 05:16:33;;;;;;;;;;;20.50;65.00;;;;;;492997;242;1208;-44
2021/07/09 05:18:33;;;;;;;;;;;20.50;65.00;;;;;;492712;242;2481;-44
2021/07/09 05:20:34;;;;;;;;;;;20.50;65.00;;;;;;492936;242;1110;-44
2021/07/09 05:22:35;;;;;;;;;;;20.50;65.00;;;;;;493024;242;2133;-44
2021/07/09 05:24:37;;;;;;;;;;;20.50;65.00;;;;;;493173;242;1108;-44
2021/07/09 05:26:38;;;;;;;;;;;20.50;65.00;;;;;;492754;242;1550;-44
2021/07/09 05:28:39;;;;;;;;;;;20.50;65.00;;;;;;492687;242;1065;-44
2021/07/09 05:30:41;;;;;;;;;;;20.50;65.00;;;;;;492797;242;1285;-44
2021/07/09 05:32:42;;;;;;;;;;;20.50;65.10;;;;;;492891;242;1225;-44
2021/07/09 05:34:44;;;;;;;;;;;20.50;65.00;;;;;;492907;242;1129;-44
2021/07/09 05:36:45;;;;;;;;;;;20.50;64.90;;;;;;492532;242;2113;-44
2021/07/09 05:38:46;;;;;;;;;;;20.50;64.90;;;;;;492793;242;1192;-44
2021/07/09 05:40:47;;;;;;;;;;;20.50;64.90;;;;;;492829;242;1153;-44
2021/07/09 05:42:49;;;;;;;;;;;20.50;65.00;;;;;;492771;242;2180;-44
2021/07/09 05:44:50;;;;;;;;;;;20.50;65.00;;;;;;492761;242;1064;-44
2021/07/09 05:46:51;;;;;;;;;;;20.50;65.00;;;;;;492498;242;1191;-44
2021/07/09 05:48:53;;;;;;;;;;;20.50;65.00;;;;;;492647;242;1242;-44
2021/07/09 05:50:54;;;;;;;;;;;20.50;65.00;;;;;;492661;242;1533;-44
2021/07/09 05:52:55;;;;;;;;;;;20.50;65.10;;;;;;492815;242;1222;-44
2021/07/09 05:54:56;;;;;;;;;;;20.50;65.10;;;;;;493091;242;1049;-44
2021/07/09 05:56:58;;;;;;;;;;;20.50;65.00;;;;;;492876;242;1304;-44
2021/07/09 05:58:59;;;;;;;;;;;20.50;65.00;;;;;;492681;242;1202;-44
2021/07/09 06:01:00;;;;;;;;;;;20.50;65.00;;;;;;492622;242;1208;-44
2021/07/09 06:03:02;;;;;;;;;;;20.50;64.90;;;;;;492658;242;2206;-44
2021/07/09 06:05:03;;;;;;;;;;;20.50;65.00;;;;;;492682;242;1136;-44
2021/07/09 06:07:04;;;;;;;;;;;20.50;64.90;;;;;;492706;242;1234;-44
2021/07/09 06:09:06;;;;;;;;;;;20.50;65.00;;;;;;493090;242;1077;-44
2021/07/09 06:11:07;;;;;;;;;;;20.40;65.00;;;;;;492803;242;1422;-44
2021/07/09 06:13:09;;;;;;;;;;;20.50;65.00;;;;;;492575;242;1193;-44
2021/07/09 06:15:10;;;;;;;;;;;20.50;65.10;;;;;;493095;242;1168;-44
2021/07/09 06:17:11;;;;;;;;;;;20.50;65.00;;;;;;492689;242;1218;-43
2021/07/09 06:19:13;;;;;;;;;;;20.50;65.00;;;;;;492635;242;1222;-44
2021/07/09 06:21:14;;;;;;;;;;;20.50;64.90;;;;;;492528;242;1396;-44
2021/07/09 06:23:15;;;;;;;;;;;20.50;65.00;;;;;;492593;242;2180;-44
2021/07/09 06:25:17;;;;;;;;;;;20.50;65.00;;;;;;492575;242;1057;-44
2021/07/09 06:27:19;;;;;;;;;;;20.50;65.00;;;;;;492481;242;1272;-44
2021/07/09 06:29:19;;;;;;;;;;;20.50;65.00;;;;;;492485;242;1943;-44
2021/07/09 06:31:21;;;;;;;;;;;20.50;65.00;;;;;;492361;242;1282;-44
2021/07/09 06:33:22;;;;;;;;;;;20.50;64.80;;;;;;492736;242;1171;-44
2021/07/09 06:35:28;;;;;;;;;;;20.60;64.80;;;;;;492510;242;1061;-44
2021/07/09 06:37:25;;;;;;;;;;;20.60;64.70;;;;;;492389;242;2245;-44
2021/07/09 06:39:27;;;;;;;;;;;20.60;64.50;;;;;;492606;242;1241;-44
2021/07/09 06:41:27;;;;;;;;;;;20.60;64.50;;;;;;492777;241;1600;-44
2021/07/09 06:43:29;;;;;;;;;;;20.60;64.50;;;;;;492680;242;2203;-44
2021/07/09 06:45:30;;;;;;;;;;;20.60;64.50;;;;;;492706;242;1180;-44
2021/07/09 06:47:31;;;;;;;;;;;20.60;64.40;;;;;;492509;242;1224;-44
2021/07/09 06:49:33;;;;;;;;;;;20.60;64.40;;;;;;492529;242;1221;-44
2021/07/09 06:51:34;;;;;;;;;;;20.60;64.40;;;;;;492562;242;1344;-44
2021/07/09 06:53:35;;;;;;;;;;;20.70;64.40;;;;;;492552;242;1159;-44
2021/07/09 06:55:37;;;;;;;;;;;20.70;64.30;;;;;;492705;242;1352;-44
2021/07/09 06:57:39;;;;;;;;;;;20.70;64.40;;;;;;492600;242;1174;-44
2021/07/09 06:59:42;;;;;;;;;;;20.60;64.40;;;;;;492633;242;1145;-44
2021/07/09 07:01:41;;;;;;;;;;;20.60;64.40;;;;;;492415;241;2176;-44
2021/07/09 07:03:42;;;;;;;;;;;20.60;64.50;;;;;;492685;242;2155;-44
2021/07/09 07:05:44;;;;;;;;;;;20.60;64.60;;;;;;492473;242;1080;-44
2021/07/09 07:07:45;;;;;;;;;;;20.60;64.60;;;;;;492530;242;1258;-44
2021/07/09 07:09:46;;;;;;;;;;;20.60;64.80;;;;;;492470;242;1118;-44
2021/07/09 07:11:48;;;;;;;;;;;20.50;64.80;;;;;;492349;242;1121;-44
2021/07/09 07:13:49;;;;;;;;;;;20.60;64.80;;;;;;492471;242;1255;-44
2021/07/09 07:15:50;;;;;;;;;;;20.50;64.80;;;;;;492357;242;1393;-44
2021/07/09 07:17:52;;;;;;;;;;;20.50;64.90;;;;;;492420;242;1118;-43
2021/07/09 07:19:53;;;;;;;;;;;20.50;64.90;;;;;;492437;242;1196;-44
2021/07/09 07:21:54;;;;;;;;;;;20.50;64.90;;;;;;492429;242;1354;-44
2021/07/09 07:23:56;;;;;;;;;;;20.50;64.90;;;;;;492582;242;2149;-44
2021/07/09 07:25:57;;;;;;;;;;;20.50;64.90;;;;;;492485;240;1238;-44
2021/07/09 07:27:58;;;;;;;;;;;20.50;64.90;;;;;;492527;242;1535;-44
2021/07/09 07:30:00;;;;;;;;;;;20.50;64.90;;;;;;492501;242;1105;-44
2021/07/09 07:32:01;;;;;;;;;;;20.50;64.90;;;;;;492406;242;1285;-44
2021/07/09 07:34:02;;;;;;;;;;;20.50;64.80;;;;;;492271;242;1229;-44
2021/07/09 07:36:04;;;;;;;;;;;20.50;64.80;;;;;;492409;242;1206;-44
2021/07/09 07:38:05;;;;;;;;;;;20.50;64.90;;;;;;492608;242;1115;-44
2021/07/09 07:40:07;;;;;;;;;;;20.50;64.90;;;;;;492390;242;1090;-44
2021/07/09 07:42:08;;;;;;;;;;;20.50;65.00;;;;;;492480;242;1223;-44
2021/07/09 07:44:09;;;;;;;;;;;20.50;65.00;;;;;;492355;242;2132;-43
2021/07/09 07:46:10;;;;;;;;;;;20.50;65.00;;;;;;492280;242;1319;-44
2021/07/09 07:48:12;;;;;;;;;;;20.50;65.00;;;;;;492392;242;1046;-44
2021/07/09 07:50:16;;;;;;;;;;;20.50;65.00;;;;;;492472;242;1170;-44
2021/07/09 07:52:14;;;;;;;;;;;20.50;65.00;;;;;;492161;242;1985;-44
2021/07/09 07:54:16;;;;;;;;;;;20.50;65.00;;;;;;492528;242;1081;-44
2021/07/09 07:56:17;;;;;;;;;;;20.50;65.00;;;;;;492415;242;1114;-44
2021/07/09 07:58:19;;;;;;;;;;;20.50;65.00;;;;;;492286;242;1203;-44
2021/07/09 08:00:20;;;;;;;;;;;20.50;65.10;;;;;;492424;242;1091;-43
2021/07/09 08:02:21;;;;;;;;;;;20.50;65.00;;;;;;492438;242;1296;-44
2021/07/09 08:04:22;;;;;;;;;;;20.50;65.00;;;;;;492499;242;2136;-43
2021/07/09 08:06:24;;;;;;;;;;;20.50;65.00;;;;;;492378;242;1322;-44
2021/07/09 08:08:25;;;;;;;;;;;20.40;65.00;;;;;;492467;242;1094;-44
2021/07/09 08:10:26;;;;;;;;;;;20.50;65.10;;;;;;492442;242;1107;-44
2021/07/09 08:12:28;;;;;;;;;;;20.40;65.10;;;;;;492311;242;1258;-44
2021/07/09 08:14:29;;;;;;;;;;;20.40;65.00;;;;;;492479;242;1109;-44
2021/07/09 08:16:30;;;;;;;;;;;20.40;65.10;;;;;;492570;242;1353;-44
2021/07/09 08:18:32;;;;;;;;;;;20.40;65.10;;;;;;492461;242;1263;-44
2021/07/09 08:20:34;;;;;;;;;;;20.40;65.10;;;;;;492318;242;1234;-44
2021/07/09 08:22:36;;;;;;;;;;;20.50;65.10;;;;;;492187;242;2232;-44
2021/07/09 08:24:36;;;;;;;;;;;20.50;65.10;;;;;;492324;242;2187;-44
2021/07/09 08:26:37;;;;;;;;;;;20.40;65.00;;;;;;492199;242;1321;-44
2021/07/09 08:28:39;;;;;;;;;;;20.40;65.10;;;;;;492365;242;1197;-44
2021/07/09 08:30:41;;;;;;;;;;;20.50;65.10;;;;;;492467;242;1108;-44
2021/07/09 08:32:42;;;;;;;;;;;20.40;65.10;;;;;;492428;242;1167;-44
2021/07/09 08:34:43;;;;;;;;;;;20.40;65.10;;;;;;492437;242;1314;-44
2021/07/09 08:36:44;;;;;;;;;;;20.40;65.10;;;;;;492485;242;1313;-44
2021/07/09 08:38:46;;;;;;;;;;;20.50;65.10;;;;;;492513;242;1097;-44
2021/07/09 08:40:47;;;;;;;;;;;20.40;65.00;;;;;;492679;242;1215;-44
2021/07/09 08:42:49;;;;;;;;;;;20.40;65.10;;;;;;492579;242;1192;-44
2021/07/09 08:44:50;;;;;;;;;;;20.40;65.10;;;;;;492467;242;2127;-44
2021/07/09 08:46:51;;;;;;;;;;;20.40;65.10;;;;;;492448;242;1331;-44
2021/07/09 08:48:53;;;;;;;;;;;20.40;65.10;;;;;;492613;242;1071;-44
2021/07/09 08:50:54;;;;;;;;;;;20.50;65.10;;;;;;492358;242;1273;-44
2021/07/09 08:52:55;;;;;;;;;;;20.50;65.00;;;;;;492508;242;1490;-44
2021/07/09 08:54:57;;;;;;;;;;;20.50;65.00;;;;;;492459;242;1199;-44
2021/07/09 08:56:58;;;;;;;;;;;20.50;65.00;;;;;;492392;242;1305;-44
2021/07/09 08:58:59;;;;;;;;;;;20.50;65.10;;;;;;492441;242;1133;-44
2021/07/09 09:01:01;;;;;;;;;;;20.40;65.10;;;;;;492483;242;1148;-44
2021/07/09 09:03:02;;;;;;;;;;;20.50;65.10;;;;;;492467;242;1100;-44
2021/07/09 09:05:03;;;;;;;;;;;20.40;65.00;;;;;;492435;242;2132;-44
2021/07/09 09:07:05;;;;;;;;;;;20.50;65.10;;;;;;492604;242;1261;-44
2021/07/09 09:09:06;;;;;;;;;;;20.50;65.10;;;;;;492930;242;1068;-44
2021/07/09 09:11:07;;;;;;;;;;;20.40;65.10;;;;;;492401;242;1217;-44
2021/07/09 09:13:08;;;;;;;;;;;20.40;65.10;;;;;;492507;242;1110;-44
2021/07/09 09:15:10;;;;;;;;;;;20.50;65.00;;;;;;492527;242;1169;-44
2021/07/09 09:17:11;;;;;;;;;;;20.50;65.00;;;;;;492438;242;1757;-44
2021/07/09 09:19:12;;;;;;;;;;;20.50;65.00;;;;;;492661;242;1118;-44
2021/07/09 09:21:14;;;;;;;;;;;20.50;65.10;;;;;;492260;242;1368;-46
2021/07/09 09:23:15;;;;;;;;;;;20.40;65.10;;;;;;492319;242;1083;-44
2021/07/09 09:25:16;;;;;;;;;;;20.40;65.10;;;;;;492289;242;2224;-44
2021/07/09 09:27:18;;;;;;;;;;;20.50;65.10;;;;;;492608;242;1463;-44
2021/07/09 09:29:19;;;;;;;;;;;20.40;65.10;;;;;;492360;242;1095;-44
2021/07/09 09:31:20;;;;;;;;;;;20.50;65.10;;;;;;492448;242;1151;-44
2021/07/09 09:33:22;;;;;;;;;;;20.50;65.10;;;;;;492426;242;1230;-44
2021/07/09 09:35:23;;;;;;;;;;;20.40;65.00;;;;;;492379;242;1196;-44
2021/07/09 09:37:28;;;;;;;;;;;20.50;65.10;;;;;;492400;242;1265;-44
2021/07/09 09:39:26;;;;;;;;;;;20.50;65.00;;;;;;491964;242;1775;-44
2021/07/09 09:41:27;;;;;;;;;;;20.40;65.10;;;;;;492429;242;1212;-44
2021/07/09 09:43:28;;;;;;;;;;;20.40;65.10;;;;;;492718;242;1130;-44
2021/07/09 09:45:30;;;;;;;;;;;20.40;65.20;;;;;;492292;242;2132;-44
2021/07/09 09:47:31;;;;;;;;;;;20.40;65.10;;;;;;492232;242;1353;-44
2021/07/09 09:49:33;;;;;;;;;;;20.40;65.00;;;;;;492279;242;1103;-44
2021/07/09 09:51:36;;;;;;;;;;;20.40;65.00;;;;;;492435;242;1285;-44
2021/07/09 09:53:36;;;;;;;;;;;20.50;65.10;;;;;;492527;242;2058;-44
2021/07/09 09:55:37;;;;;;;;;;;20.50;65.10;;;;;;492440;242;1913;-44
2021/07/09 09:57:38;;;;;;;;;;;20.40;65.10;;;;;;492363;241;1661;-44
2021/07/09 09:59:40;;;;;;;;;;;20.40;65.10;;;;;;492486;242;1307;-44
2021/07/09 10:01:41;;;;;;;;;;;20.40;65.10;;;;;;492218;242;1295;-44
2021/07/09 10:03:42;;;;;;;;;;;20.50;65.10;;;;;;492419;242;1107;-44
2021/07/09 10:05:44;;;;;;;;;;;20.50;65.10;;;;;;492261;242;2175;-44
2021/07/09 10:07:45;;;;;;;;;;;20.40;65.00;;;;;;492171;242;1111;-44
2021/07/09 10:09:47;;;;;;;;;;;20.50;65.00;;;;;;492273;242;1066;-44
2021/07/09 10:11:48;;;;;;;;;;;20.50;65.00;;;;;;492571;242;1340;-44
2021/07/09 10:13:49;;;;;;;;;;;20.50;65.00;;;;;;492482;242;1145;-44
2021/07/09 10:15:51;;;;;;;;;;;20.50;64.90;;;;;;492548;242;1253;-44
2021/07/09 10:17:52;;;;;;;;;;;20.50;64.90;;;;;;492464;242;1280;-44
2021/07/09 10:19:53;;;;;;;;;;;20.50;65.00;;;;;;492387;242;1143;-44
2021/07/09 10:21:55;;;;;;;;;;;20.50;65.00;;;;;;492237;242;1526;-44
2021/07/09 10:23:56;;;;;;;;;;;20.50;65.00;;;;;;492349;242;1111;-44
2021/07/09 10:25:57;;;;;;;;;;;20.40;65.00;;;;;;492522;242;2116;-44
2021/07/09 10:27:59;;;;;;;;;;;20.50;65.00;;;;;;492871;242;1205;-44
2021/07/09 10:30:00;;;;;;;;;;;20.50;65.00;;;;;;492642;242;1339;-44
2021/07/09 10:32:01;;;;;;;;;;;20.50;65.00;;;;;;492492;242;1325;-43
2021/07/09 10:34:03;;;;;;;;;;;20.50;65.00;;;;;;492603;242;1151;-44
2021/07/09 10:36:04;;;;;;;;;;;20.50;64.90;;;;;;492495;242;1226;-44
2021/07/09 10:38:05;;;;;;;;;;;20.50;64.90;;;;;;492525;242;1117;-44
2021/07/09 10:40:07;;;;;;;;;;;20.50;65.00;;;;;;492566;242;1216;-44
2021/07/09 10:42:08;;;;;;;;;;;20.50;65.00;;;;;;492433;242;1270;-44
2021/07/09 10:44:09;;;;;;;;;;;20.50;64.90;;;;;;492500;242;1087;-44
2021/07/09 10:46:11;;;;;;;;;;;20.40;65.00;;;;;;492390;242;2128;-44
2021/07/09 10:48:12;;;;;;;;;;;20.40;65.10;;;;;;492420;242;1318;-44
2021/07/09 10:50:13;;;;;;;;;;;20.40;65.00;;;;;;492432;242;1123;-43
2021/07/09 10:52:15;;;;;;;;;;;20.40;65.00;;;;;;492481;242;1189;-44
2021/07/09 10:54:16;;;;;;;;;;;20.40;65.00;;;;;;492572;242;1125;-44
2021/07/09 10:56:17;;;;;;;;;;;20.50;65.00;;;;;;492435;242;1226;-44
2021/07/09 10:58:19;;;;;;;;;;;20.40;65.00;;;;;;492482;242;1242;-44
2021/07/09 11:00:20;;;;;;;;;;;20.40;65.00;;;;;;492529;242;1187;-44
2021/07/09 11:02:22;;;;;;;;;;;20.40;65.00;;;;;;492528;242;1078;-44
2021/07/09 11:04:23;;;;;;;;;;;20.40;65.10;;;;;;492558;241;1136;-44
2021/07/09 11:06:24;;;;;;;;;;;20.40;65.00;;;;;;492345;242;2440;-44
2021/07/09 11:08:26;;;;;;;;;;;20.50;65.00;;;;;;492354;242;1130;-44
2021/07/09 11:10:27;;;;;;;;;;;20.50;65.00;;;;;;492388;242;1151;-44
2021/07/09 11:12:28;;;;;;;;;;;20.50;65.00;;;;;;492505;242;1226;-44
2021/07/09 11:14:30;;;;;;;;;;;20.40;64.90;;;;;;492417;242;1195;-44
2021/07/09 11:16:31;;;;;;;;;;;20.50;65.00;;;;;;492411;242;1609;-44
2021/07/09 11:18:32;;;;;;;;;;;20.40;65.00;;;;;;492428;241;1084;-44
2021/07/09 11:20:34;;;;;;;;;;;20.50;65.00;;;;;;492352;242;1106;-44
2021/07/09 11:22:36;;;;;;;;;;;20.50;65.00;;;;;;492266;242;1519;-44
2021/07/09 11:24:36;;;;;;;;;;;20.40;65.00;;;;;;492368;242;2190;-44
2021/07/09 11:26:40;;;;;;;;;;;20.40;65.00;;;;;;492425;242;1329;-44
2021/07/09 11:28:39;;;;;;;;;;;20.50;65.00;;;;;;492338;241;2182;-44
2021/07/09 11:30:40;;;;;;;;;;;20.50;65.00;;;;;;492386;242;1345;-44
2021/07/09 11:32:41;;;;;;;;;;;20.50;64.90;;;;;;492343;242;1342;-44
2021/07/09 11:34:43;;;;;;;;;;;20.50;64.90;;;;;;492300;242;1145;-44
2021/07/09 11:36:44;;;;;;;;;;;20.40;64.90;;;;;;492396;242;1134;-43
2021/07/09 11:38:46;;;;;;;;;;;20.50;65.00;;;;;;492462;242;1086;-44
2021/07/09 11:40:47;;;;;;;;;;;20.50;65.00;;;;;;492322;242;1277;-44
2021/07/09 11:42:48;;;;;;;;;;;20.40;65.00;;;;;;492904;242;1602;-44
2021/07/09 11:44:50;;;;;;;;;;;20.50;65.10;;;;;;492367;242;2182;-44
2021/07/09 11:46:51;;;;;;;;;;;20.40;65.00;;;;;;492614;242;1223;-44
2021/07/09 11:48:52;;;;;;;;;;;20.40;65.00;;;;;;492431;242;1074;-44
2021/07/09 11:50:54;;;;;;;;;;;20.50;65.10;;;;;;492361;242;1310;-44
2021/07/09 11:52:55;;;;;;;;;;;20.50;65.00;;;;;;492661;242;1269;-44
2021/07/09 11:54:56;;;;;;;;;;;20.50;65.00;;;;;;492566;242;1131;-44
2021/07/09 11:56:58;;;;;;;;;;;20.50;64.90;;;;;;492528;242;1243;-44